Albury Aeroport, Australia
Current Conditions -  °F | °C
As of 8:00 AM on Saturday 20 Dec 2014 (Local Time) from YMAY Reporting Station
Clear Clear  
Wind Chill: 61°   Ceiling: Unl
Heat Index: 61°   Visibility: 6mi
Dew Point: 46°   Wind: 3mph
Humidity: 59%   Direction: 170°S
Pressure: 30.03"   Gusts: NA
Location:  36.07°S, 146.95°E
Report Text: YMAY 192100Z AUTO 17003KT 9999 // NCD 16/08 Q1017
Loading
Personal Weather Stations






























Interactive Weather Map New forecast layout! Learn more

10-Day Weather Forecast

Advertisements
Track Severe Weather on mobile